createdAt,value
2022-11-25T00:00:36.626Z,8.52
2022-11-25T00:03:06.329Z,8.49
2022-11-25T00:05:37.396Z,8.56
2022-11-25T00:08:06.955Z,8.53
2022-11-25T00:10:36.557Z,8.45
2022-11-25T00:13:06.884Z,8.49
2022-11-25T00:15:36.938Z,8.48
2022-11-25T00:18:06.446Z,8.50
2022-11-25T00:20:38.158Z,8.50
2022-11-25T00:23:07.619Z,8.48
2022-11-25T00:25:37.299Z,8.45
2022-11-25T00:28:06.865Z,8.48
2022-11-25T00:30:36.393Z,8.46
2022-11-25T00:33:05.898Z,8.49
2022-11-25T00:35:37.164Z,8.45
2022-11-25T00:38:06.864Z,8.50
2022-11-25T00:40:36.452Z,8.50
2022-11-25T00:43:23.248Z,8.50
2022-11-25T00:45:52.886Z,8.48
2022-11-25T00:48:22.412Z,8.49
2022-11-25T00:50:53.352Z,8.50
2022-11-25T00:53:22.839Z,8.47
2022-11-25T00:56:09.919Z,8.53
2022-11-25T00:58:39.728Z,8.47
2022-11-25T01:01:09.348Z,8.48
2022-11-25T01:03:39.426Z,8.53
2022-11-25T01:06:11.338Z,8.54
2022-11-25T01:08:41.025Z,8.52
2022-11-25T01:11:13.612Z,8.49
2022-11-25T01:13:43.730Z,8.48
2022-11-25T01:16:15.601Z,8.52
2022-11-25T01:18:45.359Z,8.50
2022-11-25T01:21:17.117Z,8.50
2022-11-25T01:23:47.045Z,8.51
2022-11-25T01:26:17.387Z,8.54
2022-11-25T01:28:47.790Z,8.54
2022-11-25T01:31:18.617Z,8.53
2022-11-25T01:33:48.943Z,8.53
2022-11-25T01:36:19.820Z,8.54
2022-11-25T01:38:51.681Z,8.58
2022-11-25T01:41:21.986Z,8.62
2022-11-25T01:44:05.321Z,8.56
2022-11-25T01:46:42.038Z,8.52
2022-11-25T01:49:14.509Z,8.56
2022-11-25T01:51:47.578Z,8.59
2022-11-25T01:54:19.527Z,8.55
2022-11-25T01:56:51.954Z,8.60
2022-11-25T01:59:21.697Z,8.62
2022-11-25T02:01:51.248Z,8.57
2022-11-25T02:04:21.369Z,8.56
2022-11-25T02:06:55.349Z,8.59
2022-11-25T02:09:24.996Z,8.55
2022-11-25T02:11:55.265Z,8.58
2022-11-25T02:14:26.401Z,8.57
2022-11-25T02:16:56.679Z,8.58
2022-11-25T02:19:30.900Z,8.57
2022-11-25T02:22:04.121Z,8.59
2022-11-25T02:24:37.100Z,8.57
2022-11-25T02:27:08.353Z,8.57
2022-11-25T02:29:39.203Z,8.59
2022-11-25T02:32:08.746Z,8.56
2022-11-25T02:34:47.127Z,8.52
2022-11-25T02:37:18.952Z,8.54
2022-11-25T02:39:48.859Z,8.48
2022-11-25T02:42:21.308Z,8.49
2022-11-25T02:44:50.867Z,8.51
2022-11-25T02:47:20.554Z,8.51
2022-11-25T02:49:50.133Z,8.47
2022-11-25T02:52:19.653Z,8.45
2022-11-25T02:54:49.427Z,8.41
2022-11-25T02:57:20.217Z,8.44
2022-11-25T02:59:49.853Z,8.41
2022-11-25T03:02:19.503Z,8.34
2022-11-25T03:04:49.202Z,8.36
2022-11-25T03:07:18.701Z,8.37
2022-11-25T03:09:48.237Z,8.35
2022-11-25T03:12:20.798Z,8.31
2022-11-25T03:14:52.085Z,8.28
2022-11-25T03:17:21.913Z,8.29
2022-11-25T03:19:51.420Z,8.30
2022-11-25T03:22:20.999Z,8.25
2022-11-25T03:24:50.564Z,8.30
2022-11-25T03:27:20.068Z,8.24
2022-11-25T03:29:49.713Z,8.25
2022-11-25T03:32:20.579Z,8.26
2022-11-25T03:34:50.235Z,8.27
2022-11-25T03:37:19.927Z,8.27
2022-11-25T03:39:49.497Z,8.25
2022-11-25T03:42:19.073Z,8.22
2022-11-25T03:44:48.672Z,8.25
2022-11-25T03:47:18.160Z,8.17
2022-11-25T03:49:49.306Z,8.22
2022-11-25T03:52:18.836Z,8.19
2022-11-25T03:54:48.324Z,8.20
2022-11-25T03:57:18.349Z,8.20
2022-11-25T03:59:47.927Z,8.21
2022-11-25T04:02:17.493Z,8.22
2022-11-25T04:04:47.082Z,8.17
2022-11-25T04:07:18.146Z,8.24
2022-11-25T04:09:48.042Z,8.24
2022-11-25T04:12:35.281Z,8.27
2022-11-25T04:15:05.569Z,8.28
2022-11-25T04:17:35.639Z,8.26
2022-11-25T04:20:05.635Z,8.25
2022-11-25T04:22:36.558Z,8.25
2022-11-25T04:25:06.814Z,8.25
2022-11-25T04:27:36.444Z,8.29
2022-11-25T04:30:06.609Z,8.31
2022-11-25T04:32:37.917Z,8.28
2022-11-25T04:35:08.087Z,8.34
2022-11-25T04:37:39.203Z,8.33
2022-11-25T04:40:09.547Z,8.37
2022-11-25T04:42:39.821Z,8.39
2022-11-25T04:45:26.169Z,8.31
2022-11-25T04:47:55.888Z,8.34
2022-11-25T04:50:25.815Z,8.34
2022-11-25T04:52:56.880Z,8.41
2022-11-25T04:55:26.390Z,8.38
2022-11-25T04:57:55.939Z,8.44
2022-11-25T05:00:24.509Z,8.37
2022-11-25T05:02:54.132Z,8.41
2022-11-25T05:05:23.708Z,8.45
2022-11-25T05:07:53.344Z,8.48
2022-11-25T05:10:24.734Z,8.42
2022-11-25T05:12:55.508Z,8.39
2022-11-25T05:15:25.541Z,8.41
2022-11-25T05:17:55.252Z,8.48
2022-11-25T05:20:24.899Z,8.47
2022-11-25T05:22:54.378Z,8.50
2022-11-25T05:25:26.818Z,8.49
2022-11-25T05:27:56.645Z,8.54
2022-11-25T05:30:26.131Z,8.54
2022-11-25T05:32:55.988Z,8.51
2022-11-25T05:35:25.584Z,8.54
2022-11-25T05:37:55.181Z,8.54
2022-11-25T05:40:26.087Z,8.54
2022-11-25T05:42:55.568Z,8.57
2022-11-25T05:45:25.111Z,8.56
2022-11-25T05:47:55.931Z,8.56
2022-11-25T05:50:25.498Z,8.59
2022-11-25T05:52:54.982Z,8.57
2022-11-25T05:55:24.473Z,8.58
2022-11-25T05:57:55.440Z,8.61
2022-11-25T06:00:26.763Z,8.64
2022-11-25T06:02:57.033Z,8.67
2022-11-25T06:05:26.716Z,8.70
2022-11-25T06:07:56.410Z,8.74
2022-11-25T06:10:25.967Z,8.76
2022-11-25T06:12:57.055Z,8.75
2022-11-25T06:15:26.719Z,8.75
2022-11-25T06:17:56.879Z,8.74
2022-11-25T06:20:27.167Z,8.75
2022-11-25T06:22:56.773Z,8.73
2022-11-25T06:25:27.416Z,8.73
2022-11-25T06:28:12.461Z,8.79
2022-11-25T06:30:42.508Z,8.80
2022-11-25T06:33:12.047Z,8.80
2022-11-25T06:35:41.638Z,8.86
2022-11-25T06:38:11.242Z,8.84
2022-11-25T06:40:40.760Z,8.85
2022-11-25T06:43:11.619Z,8.86
2022-11-25T06:45:41.123Z,8.84
2022-11-25T06:48:11.538Z,8.90
2022-11-25T06:50:41.069Z,8.88
2022-11-25T06:53:10.566Z,8.91
2022-11-25T06:55:40.276Z,8.92
2022-11-25T06:58:34.425Z,8.90
2022-11-25T07:01:04.895Z,8.94
2022-11-25T07:03:34.861Z,8.98
2022-11-25T07:06:05.020Z,8.93
2022-11-25T07:08:34.734Z,8.91
2022-11-25T07:11:05.537Z,8.99
2022-11-25T07:13:36.873Z,8.98
2022-11-25T07:16:07.830Z,9.02
2022-11-25T07:18:38.174Z,8.98
2022-11-25T07:21:08.603Z,9.07
2022-11-25T07:23:39.196Z,9.05
2022-11-25T07:26:11.052Z,9.02
2022-11-25T07:28:42.498Z,9.04
2022-11-25T07:31:24.418Z,9.09
2022-11-25T07:33:55.828Z,9.09
2022-11-25T07:36:25.677Z,9.13
2022-11-25T07:38:55.268Z,9.06
2022-11-25T07:41:26.133Z,9.14
2022-11-25T07:43:57.844Z,9.18
2022-11-25T07:46:28.725Z,9.18
2022-11-25T07:48:59.072Z,9.20
2022-11-25T07:51:30.095Z,9.23
2022-11-25T07:54:00.663Z,9.22
2022-11-25T07:56:30.609Z,9.22
2022-11-25T07:59:01.527Z,9.24
2022-11-25T08:01:31.189Z,9.32
2022-11-25T08:04:00.722Z,9.32
2022-11-25T08:06:30.580Z,9.33
2022-11-25T08:09:00.369Z,9.37
2022-11-25T08:11:31.561Z,9.35
2022-11-25T08:14:03.587Z,9.41
2022-11-25T08:16:33.848Z,9.50
2022-11-25T08:19:05.629Z,9.50
2022-11-25T08:21:35.424Z,9.50
2022-11-25T08:24:05.436Z,9.56
2022-11-25T08:26:36.611Z,9.58
2022-11-25T08:29:07.985Z,9.60
2022-11-25T08:31:38.621Z,9.63
2022-11-25T08:34:08.409Z,9.64
2022-11-25T08:36:37.969Z,9.59
2022-11-25T08:39:28.771Z,9.66
2022-11-25T08:41:58.324Z,9.65
2022-11-25T08:44:30.038Z,9.66
2022-11-25T08:46:59.638Z,9.71
2022-11-25T08:49:32.771Z,9.70
2022-11-25T08:52:05.827Z,9.67
2022-11-25T08:54:35.642Z,9.73
2022-11-25T08:57:05.804Z,9.73
2022-11-25T08:59:37.048Z,9.74
2022-11-25T09:02:07.400Z,9.84
2022-11-25T09:04:37.096Z,10.08
2022-11-25T09:07:06.666Z,10.31
2022-11-25T09:09:36.874Z,10.36
2022-11-25T09:12:07.410Z,10.39
2022-11-25T09:14:40.538Z,10.53
2022-11-25T09:17:11.406Z,10.45
2022-11-25T09:19:41.322Z,10.36
2022-11-25T09:22:10.808Z,10.47
2022-11-25T09:24:41.749Z,10.46
2022-11-25T09:27:11.556Z,10.51
2022-11-25T09:29:42.695Z,10.56
2022-11-25T09:32:12.224Z,10.51
2022-11-25T09:34:41.808Z,10.60
2022-11-25T09:37:12.668Z,10.55
2022-11-25T09:39:42.197Z,10.49
2022-11-25T09:42:36.730Z,10.53
2022-11-25T09:45:35.017Z,10.59
2022-11-25T09:48:10.916Z,10.72
2022-11-25T09:50:44.038Z,10.83
2022-11-25T09:53:18.500Z,10.96
2022-11-25T09:55:48.804Z,11.02
2022-11-25T09:58:25.959Z,11.10
2022-11-25T10:00:57.025Z,11.08
2022-11-25T10:03:33.781Z,11.12
2022-11-25T10:06:06.201Z,11.10
2022-11-25T10:08:37.907Z,11.16
2022-11-25T10:11:15.305Z,11.25
2022-11-25T10:13:49.516Z,11.27
2022-11-25T10:16:30.046Z,11.34
2022-11-25T10:19:01.979Z,11.36
2022-11-25T10:21:31.502Z,11.39
2022-11-25T10:24:01.063Z,11.47
2022-11-25T10:26:36.888Z,11.57
2022-11-25T10:29:23.071Z,11.62
2022-11-25T10:31:56.408Z,11.61
2022-11-25T10:34:30.750Z,11.70
2022-11-25T10:37:02.449Z,11.72
2022-11-25T10:39:34.949Z,11.71
2022-11-25T10:42:08.136Z,11.76
2022-11-25T10:44:38.595Z,11.80
2022-11-25T10:47:16.744Z,11.79
2022-11-25T10:49:51.080Z,11.83
2022-11-25T10:52:23.843Z,11.85
2022-11-25T10:54:57.334Z,11.86
2022-11-25T10:57:28.610Z,11.93
2022-11-25T10:59:59.032Z,11.91
2022-11-25T11:02:30.810Z,12.02
2022-11-25T11:05:01.800Z,12.14
2022-11-25T11:07:34.248Z,11.93
2022-11-25T11:10:15.748Z,11.87
2022-11-25T11:12:55.697Z,11.83
2022-11-25T11:15:26.151Z,11.66
2022-11-25T11:17:58.090Z,11.58
2022-11-25T11:20:29.064Z,11.65
2022-11-25T11:23:07.044Z,11.62
2022-11-25T11:25:39.045Z,11.60
2022-11-25T11:28:23.409Z,11.53
2022-11-25T11:30:56.763Z,11.53
2022-11-25T11:33:36.673Z,11.48
2022-11-25T11:36:11.861Z,11.50
2022-11-25T11:38:44.340Z,11.54
2022-11-25T11:41:20.317Z,11.55
2022-11-25T11:44:02.379Z,11.58
2022-11-25T11:46:39.917Z,11.65
2022-11-25T11:49:30.721Z,11.64
2022-11-25T11:52:06.320Z,11.68
2022-11-25T11:54:40.089Z,11.66
2022-11-25T11:57:17.851Z,11.67
2022-11-25T11:59:49.906Z,11.72
2022-11-25T12:02:30.886Z,11.79
2022-11-25T12:05:06.188Z,11.85
2022-11-25T12:07:38.192Z,11.93
2022-11-25T12:10:11.354Z,11.92
2022-11-25T12:12:47.333Z,11.96
2022-11-25T12:15:18.968Z,11.97
2022-11-25T12:17:53.069Z,11.99
2022-11-25T12:20:31.241Z,11.98
2022-11-25T12:23:01.908Z,11.95
2022-11-25T12:25:33.643Z,11.97
2022-11-25T12:28:06.972Z,11.95
2022-11-25T12:30:39.650Z,11.98
2022-11-25T12:33:11.794Z,12.04
2022-11-25T12:35:47.298Z,12.05
2022-11-25T12:38:27.616Z,12.05
2022-11-25T12:41:02.374Z,12.07
2022-11-25T12:43:36.310Z,12.04
2022-11-25T12:46:14.319Z,11.99
2022-11-25T12:48:44.504Z,11.97
2022-11-25T12:51:21.000Z,12.01
2022-11-25T12:53:57.145Z,12.05
2022-11-25T12:56:28.689Z,12.04
2022-11-25T12:59:06.767Z,12.02
2022-11-25T13:01:58.125Z,12.01
2022-11-25T13:04:36.810Z,11.95
2022-11-25T13:07:33.872Z,11.94
2022-11-25T13:10:15.382Z,11.90
2022-11-25T13:12:50.966Z,11.87
2022-11-25T13:15:26.477Z,11.89
2022-11-25T13:17:59.061Z,11.88
2022-11-25T13:20:36.352Z,11.87
2022-11-25T13:23:10.298Z,11.81
2022-11-25T13:25:42.156Z,11.82
2022-11-25T13:28:26.822Z,11.86
2022-11-25T13:30:56.448Z,11.85
2022-11-25T13:33:44.838Z,11.89
2022-11-25T13:36:17.507Z,11.84
2022-11-25T13:39:02.309Z,11.81
2022-11-25T13:41:38.460Z,11.78
2022-11-25T13:44:15.191Z,11.80
2022-11-25T13:46:45.426Z,11.76
2022-11-25T13:49:23.309Z,11.69
2022-11-25T13:51:54.475Z,11.75
2022-11-25T13:54:26.840Z,11.69
2022-11-25T13:57:16.423Z,11.66
2022-11-25T13:59:56.813Z,11.64
2022-11-25T14:02:45.261Z,11.63
2022-11-25T14:05:32.743Z,11.60
2022-11-25T14:08:08.159Z,11.55
2022-11-25T14:10:45.695Z,11.55
2022-11-25T14:13:25.862Z,11.56
2022-11-25T14:16:07.272Z,11.49
2022-11-25T14:21:56.575Z,11.41
2022-11-25T14:24:40.921Z,11.40
2022-11-25T14:27:15.255Z,11.42
2022-11-25T14:29:47.865Z,11.35
2022-11-25T14:32:20.587Z,11.32
2022-11-25T14:34:54.025Z,11.31
2022-11-25T14:37:27.355Z,11.22
2022-11-25T14:39:59.352Z,11.24
2022-11-25T14:42:32.987Z,11.18
2022-11-25T14:45:04.233Z,11.12
2022-11-25T14:47:37.606Z,11.10
2022-11-25T14:53:06.545Z,10.99
2022-11-25T14:55:36.691Z,10.97
2022-11-25T14:58:06.432Z,10.98
2022-11-25T15:00:50.540Z,10.87
2022-11-25T15:03:21.172Z,10.82
2022-11-25T15:05:55.059Z,10.75
2022-11-25T15:08:25.518Z,10.73
2022-11-25T15:10:56.196Z,10.73
2022-11-25T15:13:30.555Z,10.68
2022-11-25T15:16:05.866Z,10.65
2022-11-25T15:18:35.979Z,10.59
2022-11-25T15:21:05.839Z,10.53
2022-11-25T15:23:37.513Z,10.50
2022-11-25T15:26:17.072Z,10.45
2022-11-25T15:28:46.892Z,10.35
2022-11-25T15:31:20.700Z,10.33
2022-11-25T15:33:54.599Z,10.33
2022-11-25T15:36:24.932Z,10.31
2022-11-25T15:38:54.937Z,10.26
2022-11-25T15:41:31.728Z,10.23
2022-11-25T15:44:03.001Z,10.19
2022-11-25T15:46:36.755Z,10.16
2022-11-25T15:49:07.549Z,10.10
2022-11-25T15:51:39.808Z,10.06
2022-11-25T15:54:16.013Z,10.04
2022-11-25T15:56:46.859Z,10.01
2022-11-25T15:59:35.299Z,10.00
2022-11-25T16:02:29.355Z,9.88
2022-11-25T16:05:10.254Z,9.87
2022-11-25T16:07:40.291Z,9.82
2022-11-25T16:10:17.340Z,9.79
2022-11-25T16:13:21.186Z,9.73
2022-11-25T16:15:53.668Z,9.69
2022-11-25T16:18:39.899Z,9.65
2022-11-25T16:21:11.609Z,9.67
2022-11-25T16:23:45.171Z,9.68
2022-11-25T16:26:16.915Z,9.55
2022-11-25T16:28:52.550Z,9.51
2022-11-25T16:31:22.672Z,9.52
2022-11-25T16:33:54.773Z,9.47
2022-11-25T16:36:24.338Z,9.39
2022-11-25T16:38:55.006Z,9.37
2022-11-25T16:41:25.774Z,9.24
2022-11-25T16:43:57.152Z,9.24
2022-11-25T16:46:28.910Z,9.15
2022-11-25T16:49:00.008Z,9.15
2022-11-25T16:51:29.569Z,9.10
2022-11-25T16:53:59.558Z,9.07
2022-11-25T16:56:29.799Z,9.00
2022-11-25T16:58:59.493Z,8.96
2022-11-25T17:01:29.590Z,8.99
2022-11-25T17:04:00.986Z,8.89
2022-11-25T17:06:31.314Z,8.81
2022-11-25T17:09:00.797Z,8.85
2022-11-25T17:11:31.766Z,8.82
2022-11-25T17:14:03.273Z,8.75
2022-11-25T17:16:33.355Z,8.68
2022-11-25T17:19:04.496Z,8.69
2022-11-25T17:21:34.118Z,8.72
2022-11-25T17:24:07.197Z,8.68
2022-11-25T17:26:37.908Z,8.70
2022-11-25T17:29:08.972Z,8.68
2022-11-25T17:31:38.902Z,8.60
2022-11-25T17:34:11.783Z,8.66
2022-11-25T17:36:41.339Z,8.61
2022-11-25T17:39:12.389Z,8.51
2022-11-25T17:41:43.796Z,8.50
2022-11-25T17:44:21.828Z,8.42
2022-11-25T17:46:52.079Z,8.51
2022-11-25T17:49:23.718Z,8.50
2022-11-25T17:51:53.283Z,8.43
2022-11-25T17:54:22.938Z,8.44
2022-11-25T17:56:52.806Z,8.45
2022-11-25T17:59:25.204Z,8.45
2022-11-25T18:01:56.152Z,8.43
2022-11-25T18:04:28.051Z,8.46
2022-11-25T18:06:57.631Z,8.44
2022-11-25T18:09:27.213Z,8.39
2022-11-25T18:11:59.121Z,8.27
2022-11-25T18:14:29.522Z,8.35
2022-11-25T18:17:01.766Z,8.29
2022-11-25T18:19:33.475Z,8.29
2022-11-25T18:22:10.313Z,8.17
2022-11-25T18:24:40.229Z,8.19
2022-11-25T18:27:11.972Z,8.16
2022-11-25T18:29:41.507Z,8.16
2022-11-25T18:32:11.117Z,8.19
2022-11-25T18:34:42.108Z,8.21
2022-11-25T18:37:12.517Z,8.24
2022-11-25T18:39:42.082Z,8.19
2022-11-25T18:42:19.632Z,8.11
2022-11-25T18:44:49.253Z,8.09
2022-11-25T18:47:19.014Z,8.06
2022-11-25T18:49:55.138Z,8.07
2022-11-25T18:52:25.716Z,8.11
2022-11-25T18:54:55.358Z,8.03
2022-11-25T18:57:24.994Z,8.03
2022-11-25T19:00:17.272Z,8.00
2022-11-25T19:02:44.240Z,7.95
2022-11-25T19:05:19.912Z,7.97
2022-11-25T19:07:51.151Z,7.98
2022-11-25T19:10:21.843Z,7.85
2022-11-25T19:12:54.208Z,7.88
2022-11-25T19:15:26.228Z,7.90
2022-11-25T19:17:57.571Z,7.94
2022-11-25T19:20:30.279Z,7.88
2022-11-25T19:23:01.093Z,7.83
2022-11-25T19:25:31.074Z,7.87
2022-11-25T19:28:02.383Z,7.87
2022-11-25T19:30:32.866Z,7.93
2022-11-25T19:33:03.211Z,7.87
2022-11-25T19:35:34.949Z,7.79
2022-11-25T19:38:08.629Z,7.81
2022-11-25T19:40:40.523Z,7.78
2022-11-25T19:43:10.725Z,7.72
2022-11-25T19:45:41.959Z,7.71
2022-11-25T19:48:14.950Z,7.69
2022-11-25T19:50:47.464Z,7.75
2022-11-25T19:53:18.740Z,7.72
2022-11-25T19:55:48.726Z,7.70
2022-11-25T19:58:18.416Z,7.69
2022-11-25T20:00:48.547Z,7.69
2022-11-25T20:03:20.519Z,7.65
2022-11-25T20:05:52.525Z,7.58
2022-11-25T20:08:23.117Z,7.59
2022-11-25T20:10:53.189Z,7.61
2022-11-25T20:13:26.153Z,7.61
2022-11-25T20:15:56.699Z,7.69
2022-11-25T20:18:27.302Z,7.65
2022-11-25T20:21:01.540Z,7.56
2022-11-25T20:23:38.577Z,7.60
2022-11-25T20:26:15.812Z,7.52
2022-11-25T20:28:45.678Z,7.52
2022-11-25T20:31:16.236Z,7.60
2022-11-25T20:33:47.793Z,7.46
2022-11-25T20:36:20.164Z,7.46
2022-11-25T20:38:50.511Z,7.47
2022-11-25T20:41:25.928Z,7.43
2022-11-25T20:43:57.849Z,7.43
2022-11-25T20:46:30.127Z,7.42
2022-11-25T20:49:01.702Z,7.34
2022-11-25T20:51:32.695Z,7.29
2022-11-25T20:54:02.475Z,7.28
2022-11-25T20:56:32.209Z,7.26
2022-11-25T20:59:01.789Z,7.29
2022-11-25T21:01:31.360Z,7.21
2022-11-25T21:04:01.423Z,7.22
2022-11-25T21:06:37.917Z,7.24
2022-11-25T21:09:16.286Z,7.26
2022-11-25T21:11:46.820Z,7.26
2022-11-25T21:14:18.058Z,7.28
2022-11-25T21:16:48.756Z,7.23
2022-11-25T21:19:18.613Z,7.27
2022-11-25T21:21:50.631Z,7.22
2022-11-25T21:24:29.425Z,7.14
2022-11-25T21:27:00.027Z,7.24
2022-11-25T21:29:30.270Z,7.19
2022-11-25T21:31:59.832Z,7.22
2022-11-25T21:34:29.359Z,7.09
2022-11-25T21:37:06.220Z,7.09
2022-11-25T21:39:35.908Z,7.20
2022-11-25T21:42:07.117Z,7.13
2022-11-25T21:44:38.727Z,7.14
2022-11-25T21:47:13.327Z,7.14
2022-11-25T21:49:43.241Z,7.13
2022-11-25T21:52:14.209Z,7.09
2022-11-25T21:54:44.088Z,7.11
2022-11-25T21:57:15.752Z,7.10
2022-11-25T21:59:45.827Z,7.02
2022-11-25T22:02:17.576Z,7.05
2022-11-25T22:04:47.592Z,6.99
2022-11-25T22:07:18.687Z,7.01
2022-11-25T22:09:48.303Z,7.03
2022-11-25T22:12:26.194Z,7.03
2022-11-25T22:14:56.657Z,7.00
2022-11-25T22:17:26.719Z,6.93
2022-11-25T22:19:57.038Z,6.78
2022-11-25T22:22:28.553Z,6.82
2022-11-25T22:24:58.123Z,6.81
2022-11-25T22:27:36.036Z,6.81
2022-11-25T22:30:06.372Z,6.79
2022-11-25T22:32:36.048Z,6.77
2022-11-25T22:35:07.346Z,6.76
2022-11-25T22:37:38.512Z,6.72
2022-11-25T22:40:08.752Z,6.66
2022-11-25T22:42:38.768Z,6.65
2022-11-25T22:45:10.325Z,6.69
2022-11-25T22:47:41.523Z,6.62
2022-11-25T22:50:18.685Z,6.68
2022-11-25T22:52:49.727Z,6.56
2022-11-25T22:55:20.925Z,6.51
2022-11-25T22:57:51.002Z,6.51
2022-11-25T23:00:23.384Z,6.56
2022-11-25T23:02:53.858Z,6.63
2022-11-25T23:05:30.580Z,6.52
2022-11-25T23:08:04.150Z,6.45
2022-11-25T23:10:33.635Z,6.51
2022-11-25T23:13:03.659Z,6.61
2022-11-25T23:15:33.835Z,6.53
2022-11-25T23:18:04.922Z,6.53
2022-11-25T23:20:35.856Z,6.56
2022-11-25T23:23:13.611Z,6.54
2022-11-25T23:25:43.576Z,6.51
2022-11-25T23:28:13.307Z,6.53
2022-11-25T23:30:46.869Z,6.45
2022-11-25T23:33:19.506Z,6.49
2022-11-25T23:35:49.593Z,6.49
2022-11-25T23:38:23.441Z,6.55
2022-11-25T23:40:53.020Z,6.38
2022-11-25T23:43:22.580Z,6.44
2022-11-25T23:45:53.561Z,6.40
2022-11-25T23:48:25.561Z,6.36
2022-11-25T23:50:55.892Z,6.26
2022-11-25T23:53:29.109Z,6.30
2022-11-25T23:55:59.070Z,6.28
2022-11-25T23:58:29.072Z,6.22
